Syracuse, NY (13201)

7:44 AM EDT on April 28, 2017 (GMT -0400)
Clinton Square - Syracuse | | Change Station

Elev 407 ft 43.05 °N, 76.15 °W | Updated 13 minutes ago

Partly Cloudy
Partly Cloudy
56.4 °F
Feels Like 56.4 °F
N
4.0
Wind Variable Wind from NW
Gusts 7.0 mph

Today
High -- | Low -- °F
--% Chance of Precip.
Yesterday
High -- | Low -- °F
Precip. -- in
Pressure 29.95 in
Visibility 10.0 miles
Clouds Scattered Clouds 4600 ft
Scattered Clouds 18000 ft
Mostly Cloudy 25000 ft
Dew Point 46 °F
Humidity 69%
Rainfall 0.11 in
Snow Depth Not available.
6:02 AM 8:02 PM
Waxing Crescent, 6% visible
METAR KSYR 281054Z 26010KT 10SM SCT046 SCT180 BKN250 12/07 A2996 RMK AO2 SLP141 T01220072
Pressure 29.95 in
Visibility 10.0 miles
Clouds Scattered Clouds 4600 ft
Scattered Clouds 18000 ft
Mostly Cloudy 25000 ft
Dew Point 46 °F
Humidity 69%
Rainfall 0.11 in
Snow Depth Not available.
6:02 AM 8:02 PM
Waxing Crescent, 6% visible
METAR KSYR 281054Z 26010KT 10SM SCT046 SCT180 BKN250 12/07 A2996 RMK AO2 SLP141 T01220072

Get Severe Weather Alerts

Thanks for signing up!

Be on the lookout for a verification email in your inbox.

You'll start receiving the daily forecast at 8 AM.

×

10-Day Weather Forecast

Almanac

Astronomy

Apr. 28, 2017 Rise Set
Actual Time
Civil Twilight
Nautical Twilight
Astronomical Twilight
Moon
Length of Visible Light
Length of Day
Tomorrow will be .
, % of the Moon is Illuminated

Today's Extremes

State Highs State Lows

Community

WunderPhotos

WunderBlog® & News

Nearby

Air Quality

  Air Quality AQ Index Pollutant
Not available.

Snow Depth

Station Depth Elevation

Earthquake Activity

City Distance Mag. Time & Date
Minimum magnitude displayed is 2.5.

Coastal Water Temperatures

Place Temperature

Stations

Nearby Weather Stations

Station Location Temp. Windchill Dew Point Humidity Wind Precip. Elev Updated Type
                   

Watches & Warnings

There are currently no watches in effect.